createdAt,value
2023-08-08T00:01:07.181Z,99821.06
2023-08-08T00:06:12.817Z,99824.06
2023-08-08T00:11:17.820Z,99827.03
2023-08-08T00:16:23.221Z,99827.88
2023-08-08T00:21:30.200Z,99818.72
2023-08-08T00:26:36.105Z,99819.78
2023-08-08T00:31:41.130Z,99829.53
2023-08-08T00:36:46.901Z,99834.09
2023-08-08T00:41:51.936Z,99831.94
2023-08-08T00:46:57.279Z,99840.31
2023-08-08T00:52:03.442Z,99849.78
2023-08-08T00:57:08.815Z,99864.38
2023-08-08T01:02:14.690Z,99852.22
2023-08-08T01:07:43.896Z,99860.84
2023-08-08T01:12:59.061Z,99867.38
2023-08-08T01:18:06.432Z,99851.13
2023-08-08T01:23:29.526Z,99861.63
2023-08-08T01:28:34.905Z,99864.84
2023-08-08T01:33:41.532Z,99886.47
2023-08-08T01:38:50.798Z,99857.69
2023-08-08T01:43:56.411Z,99886.97
2023-08-08T01:49:03.127Z,99864.22
2023-08-08T01:54:08.165Z,99894.53
2023-08-08T01:59:14.995Z,99852.47
2023-08-08T02:04:23.520Z,99858.66
2023-08-08T02:09:31.871Z,99847.75
2023-08-08T02:14:37.248Z,99849.88
2023-08-08T02:19:42.959Z,99859.28
2023-08-08T02:24:50.168Z,99857.34
2023-08-08T02:29:56.204Z,99842.31
2023-08-08T02:35:03.209Z,99831.13
2023-08-08T02:40:10.384Z,99837.63
2023-08-08T02:45:15.771Z,99825.09
2023-08-08T02:50:22.262Z,99828.38
2023-08-08T02:55:29.239Z,99843.50
2023-08-08T03:00:36.177Z,99823.31
2023-08-08T03:05:42.569Z,99824.13
2023-08-08T03:10:49.301Z,99828.22
2023-08-08T03:15:54.857Z,99836.38
2023-08-08T03:21:01.863Z,99819.56
2023-08-08T03:26:11.673Z,99799.97
2023-08-08T03:31:18.101Z,99800.53
2023-08-08T03:36:24.975Z,99800.44
2023-08-08T03:41:31.354Z,99800.31
2023-08-08T03:46:37.378Z,99818.69
2023-08-08T03:51:42.436Z,99807.22
2023-08-08T03:56:49.231Z,99801.78
2023-08-08T04:01:56.655Z,99793.03
2023-08-08T04:07:03.525Z,99797.66
2023-08-08T04:12:10.513Z,99804.72
2023-08-08T04:17:16.526Z,99790.31
2023-08-08T04:22:22.391Z,99782.19
2023-08-08T04:27:28.233Z,99789.47
2023-08-08T04:32:33.645Z,99766.59
2023-08-08T04:37:39.077Z,99765.94
2023-08-08T04:42:44.662Z,99770.72
2023-08-08T04:47:52.317Z,99783.69
2023-08-08T04:52:57.925Z,99759.91
2023-08-08T04:58:04.094Z,99762.53
2023-08-08T05:03:09.912Z,99760.25
2023-08-08T05:08:16.986Z,99763.41
2023-08-08T05:13:22.395Z,99756.56
2023-08-08T05:18:28.056Z,99755.41
2023-08-08T05:23:33.883Z,99752.31
2023-08-08T05:28:40.077Z,99749.19
2023-08-08T05:33:45.467Z,99757.03
2023-08-08T05:38:50.827Z,99755.44
2023-08-08T05:43:58.009Z,99740.53
2023-08-08T05:49:04.111Z,99740.81
2023-08-08T05:54:09.502Z,99751.19
2023-08-08T05:59:14.518Z,99737.69
2023-08-08T06:04:19.965Z,99726.88
2023-08-08T06:09:25.721Z,99738.03
2023-08-08T06:14:31.797Z,99726.38
2023-08-08T06:19:37.109Z,99723.66
2023-08-08T06:24:43.781Z,99737.53
2023-08-08T06:29:49.860Z,99728.28
2023-08-08T06:34:56.249Z,99732.41
2023-08-08T06:40:02.366Z,99744.53
2023-08-08T06:45:08.950Z,99716.97
2023-08-08T06:50:14.003Z,99720.41
2023-08-08T06:55:19.784Z,99726.34
2023-08-08T07:00:25.622Z,99722.28
2023-08-08T07:05:32.570Z,99734.28
2023-08-08T07:10:39.309Z,99724.00
2023-08-08T07:15:45.062Z,99716.13
2023-08-08T07:20:51.807Z,99717.19
2023-08-08T07:25:58.149Z,99707.81
2023-08-08T07:31:04.062Z,99705.91
2023-08-08T07:36:09.565Z,99708.06
2023-08-08T07:41:15.218Z,99713.41
2023-08-08T07:46:21.025Z,99713.31
2023-08-08T07:51:27.007Z,99704.06
2023-08-08T07:56:32.439Z,99706.59
2023-08-08T08:01:38.921Z,99709.38
2023-08-08T08:06:45.389Z,99714.59
2023-08-08T08:11:50.961Z,99715.97
2023-08-08T08:16:56.700Z,99713.56
2023-08-08T08:22:02.450Z,99717.38
2023-08-08T08:27:08.455Z,99723.91
2023-08-08T08:32:13.870Z,99732.00
2023-08-08T08:37:19.157Z,99728.41
2023-08-08T08:42:28.650Z,99722.56
2023-08-08T08:47:36.412Z,99735.00
2023-08-08T08:52:42.179Z,99710.50
2023-08-08T08:57:49.461Z,99693.91
2023-08-08T09:02:57.914Z,99686.34
2023-08-08T09:08:03.624Z,99678.19
2023-08-08T09:13:09.219Z,99674.16
2023-08-08T09:18:17.042Z,99676.97
2023-08-08T09:23:22.984Z,99678.94
2023-08-08T09:28:28.861Z,99668.97
2023-08-08T09:33:35.196Z,99672.84
2023-08-08T09:38:40.851Z,99670.22
2023-08-08T09:43:51.451Z,99664.88
2023-08-08T09:48:58.453Z,99676.38
2023-08-08T09:54:06.611Z,99670.72
2023-08-08T09:59:15.781Z,99672.41
2023-08-08T10:04:22.138Z,99679.53
2023-08-08T10:09:29.701Z,99708.41
2023-08-08T10:14:38.970Z,99695.19
2023-08-08T10:19:52.162Z,99689.84
2023-08-08T10:24:58.864Z,99704.31
2023-08-08T10:30:12.781Z,99713.06
2023-08-08T10:35:18.034Z,99729.41
2023-08-08T10:40:23.531Z,99734.63
2023-08-08T10:45:33.421Z,99746.06
2023-08-08T10:50:44.819Z,99745.84
2023-08-08T10:55:52.774Z,99744.50
2023-08-08T11:00:57.923Z,99764.91
2023-08-08T11:06:04.076Z,99747.28
2023-08-08T11:11:09.898Z,99734.00
2023-08-08T11:16:14.836Z,99735.69
2023-08-08T11:21:19.611Z,99731.94
2023-08-08T11:26:25.488Z,99724.66
2023-08-08T11:31:31.467Z,99708.44
2023-08-08T11:36:37.328Z,99709.03
2023-08-08T11:41:44.027Z,99684.97
2023-08-08T11:46:50.414Z,99703.75
2023-08-08T11:52:02.603Z,99726.81
2023-08-08T11:57:09.075Z,99754.03
2023-08-08T12:02:15.917Z,99779.56
2023-08-08T12:07:22.694Z,99782.06
2023-08-08T12:12:30.845Z,99776.91
2023-08-08T12:17:36.295Z,99776.97
2023-08-08T12:22:41.217Z,99789.22
2023-08-08T12:27:45.941Z,99777.53
2023-08-08T12:32:51.944Z,99770.78
2023-08-08T12:37:57.604Z,99820.19
2023-08-08T12:43:03.512Z,99804.47
2023-08-08T12:48:08.860Z,99808.31
2023-08-08T12:53:13.920Z,99839.50
2023-08-08T12:58:21.106Z,99811.56
2023-08-08T13:03:27.193Z,99812.66
2023-08-08T13:08:33.725Z,99789.34
2023-08-08T13:13:38.891Z,99820.56
2023-08-08T13:18:43.725Z,99793.72
2023-08-08T13:23:50.457Z,99775.28
2023-08-08T13:28:56.421Z,99794.53
2023-08-08T13:34:01.613Z,99801.34
2023-08-08T13:39:06.874Z,99816.00
2023-08-08T13:44:12.912Z,99818.19
2023-08-08T13:49:18.540Z,99833.63
2023-08-08T13:54:24.470Z,99860.75
2023-08-08T13:59:29.887Z,99869.41
2023-08-08T14:04:34.661Z,99884.06
2023-08-08T14:09:39.872Z,99900.88
2023-08-08T14:14:46.152Z,99893.00
2023-08-08T14:19:52.017Z,99884.59
2023-08-08T14:24:57.071Z,99860.47
2023-08-08T14:30:01.925Z,99854.53
2023-08-08T14:35:07.733Z,99885.44
2023-08-08T14:40:13.293Z,99883.00
2023-08-08T14:45:18.771Z,99881.69
2023-08-08T14:50:23.772Z,99885.47
2023-08-08T14:55:29.611Z,99901.22
2023-08-08T15:00:34.664Z,99922.09
2023-08-08T15:05:40.966Z,99916.41
2023-08-08T15:10:45.949Z,99923.13
2023-08-08T15:15:52.296Z,99915.81
2023-08-08T15:20:57.336Z,99917.97
2023-08-08T15:26:03.024Z,99933.19
2023-08-08T15:31:08.186Z,99935.09
2023-08-08T15:36:13.577Z,99952.72
2023-08-08T15:41:18.687Z,99954.66
2023-08-08T15:46:23.764Z,99922.38
2023-08-08T15:51:29.012Z,99935.94
2023-08-08T15:56:33.968Z,99936.50
2023-08-08T16:01:39.123Z,99940.31
2023-08-08T16:06:44.325Z,99953.34
2023-08-08T16:11:50.330Z,99953.63
2023-08-08T16:16:55.285Z,99987.22
2023-08-08T16:22:00.357Z,99936.81
2023-08-08T16:27:08.425Z,99953.34
2023-08-08T16:32:14.349Z,99957.94
2023-08-08T16:37:20.128Z,99957.41
2023-08-08T16:42:25.972Z,99969.09
2023-08-08T16:47:34.535Z,99961.50
2023-08-08T16:52:40.166Z,99956.63
2023-08-08T16:57:47.342Z,99945.25
2023-08-08T17:02:53.474Z,99951.22
2023-08-08T17:07:58.744Z,99949.63
2023-08-08T17:13:05.161Z,99945.81
2023-08-08T17:18:10.125Z,99939.59
2023-08-08T17:23:21.427Z,99968.03
2023-08-08T17:28:26.306Z,99971.84
2023-08-08T17:33:32.048Z,99967.50
2023-08-08T17:38:37.208Z,99976.75
2023-08-08T17:43:41.895Z,99956.16
2023-08-08T17:48:46.698Z,99976.19
2023-08-08T17:53:52.550Z,99979.47
2023-08-08T17:58:58.703Z,99981.34
2023-08-08T18:04:04.803Z,99987.59
2023-08-08T18:09:10.745Z,99993.84
2023-08-08T18:14:15.843Z,100009.28
2023-08-08T18:19:22.436Z,99984.91
2023-08-08T18:24:27.746Z,99980.56
2023-08-08T18:29:32.803Z,99996.28
2023-08-08T18:34:39.821Z,99965.41
2023-08-08T18:39:47.148Z,99972.69
2023-08-08T18:44:52.360Z,99954.00
2023-08-08T18:49:57.580Z,99947.78
2023-08-08T18:55:02.679Z,99961.59
2023-08-08T19:00:09.508Z,99955.66
2023-08-08T19:05:14.533Z,99954.59
2023-08-08T19:10:20.779Z,99965.47
2023-08-08T19:15:26.821Z,99950.53
2023-08-08T19:20:32.135Z,99953.00
2023-08-08T19:25:37.252Z,99997.72
2023-08-08T19:30:42.879Z,99953.00
2023-08-08T19:35:47.840Z,99937.88
2023-08-08T19:40:54.731Z,99936.75
2023-08-08T19:46:01.042Z,99936.22
2023-08-08T19:51:07.232Z,99941.91
2023-08-08T19:56:13.034Z,99980.88
2023-08-08T20:01:18.994Z,99948.13
2023-08-08T20:06:24.004Z,99952.47
2023-08-08T20:11:29.579Z,99965.22
2023-08-08T20:16:35.161Z,99954.69
2023-08-08T20:21:41.223Z,99966.28
2023-08-08T20:26:46.990Z,99970.66
2023-08-08T20:31:51.966Z,99966.59
2023-08-08T20:36:56.842Z,99987.44
2023-08-08T20:42:03.456Z,99990.19
2023-08-08T20:47:08.594Z,99972.56
2023-08-08T20:52:14.305Z,99979.63
2023-08-08T20:57:20.123Z,99987.22
2023-08-08T21:02:25.450Z,99976.66
2023-08-08T21:07:30.680Z,99978.00
2023-08-08T21:12:36.728Z,99997.78
2023-08-08T21:17:49.501Z,99973.69
2023-08-08T21:22:54.532Z,99983.94
2023-08-08T21:28:01.776Z,99983.16
2023-08-08T21:33:06.253Z,99986.94
2023-08-08T21:38:12.611Z,99997.22
2023-08-08T21:43:18.392Z,99988.81
2023-08-08T21:48:23.467Z,99985.03
2023-08-08T21:53:30.008Z,99995.06
2023-08-08T21:58:37.373Z,100003.72
2023-08-08T22:03:42.142Z,99994.78
2023-08-08T22:08:47.368Z,99999.66
2023-08-08T22:13:52.259Z,100002.09
2023-08-08T22:18:58.095Z,99995.59
2023-08-08T22:24:04.017Z,99999.13
2023-08-08T22:29:09.541Z,99994.22
2023-08-08T22:34:15.063Z,100006.13
2023-08-08T22:39:20.058Z,99995.88
2023-08-08T22:44:24.725Z,99995.03
2023-08-08T22:49:30.547Z,100002.34
2023-08-08T22:54:35.411Z,100004.25
2023-08-08T22:59:40.667Z,100011.84
2023-08-08T23:04:45.665Z,100013.72
2023-08-08T23:09:51.008Z,100023.47
2023-08-08T23:14:55.687Z,100031.59
2023-08-08T23:20:00.813Z,100027.25
2023-08-08T23:25:07.881Z,100020.75
2023-08-08T23:30:12.920Z,100028.03
2023-08-08T23:35:17.623Z,100028.63
2023-08-08T23:40:22.802Z,100026.69
2023-08-08T23:45:27.469Z,100029.97
2023-08-08T23:50:33.558Z,100053.78
2023-08-08T23:55:38.530Z,100033.72
